.
WxDataArchive / Data Records for 2016-06-16
2016-06-15 June 2016 2016-06-17

Data Records for Thursday, 16 June 2016

Time	Temp	Chill	HIndex	Humid	Dewpt	 Wind 	HiWind	WindDir	Rain 	Barom
-----	----	-----	------	-----	-----	------	------	-------	-----	-----
00:00	72.8	72.8	72.8	83	67.3	0	1	292	0.00	29.702 
00:05	72.7	72.7	72.7	83	67.2	0	1	292	0.00	29.702 
00:10	72.7	72.7	72.7	83	67.2	0	1	292	0.00	29.702 
00:15	72.5	72.5	72.5	83	67.0	0	1	292	0.00	29.694 
00:20	72.5	72.5	72.5	84	67.4	0	1	292	0.00	29.694 
00:25	72.5	72.5	72.5	83	67.0	0	0	---	0.00	29.694 
00:30	72.3	72.3	72.3	84	67.2	0	1	292	0.00	29.686 
00:35	72.3	72.3	72.3	83	66.8	0	1	292	0.00	29.686 
00:40	72.3	72.3	72.3	84	67.2	0	0	---	0.00	29.686 
00:45	72.1	72.1	72.1	84	67.0	0	0	---	0.00	29.678 
00:50	72.1	72.1	72.1	84	67.0	0	2	292	0.00	29.678 
00:55	72.0	72.0	72.0	83	66.5	0	2	---	0.00	29.678 
01:00	72.0	72.0	72.0	83	66.5	0	0	---	0.00	29.676 
01:05	72.0	72.0	72.0	83	66.5	0	1	292	0.00	29.676 
01:10	72.0	72.0	72.0	83	66.5	0	0	---	0.00	29.676 
01:15	72.0	72.0	72.0	83	66.5	0	0	---	0.00	29.675 
01:20	71.8	71.8	71.8	83	66.3	0	1	292	0.00	29.675 
01:25	71.8	71.8	71.8	83	66.3	0	1	292	0.00	29.675 
01:30	71.6	71.6	71.6	83	66.2	0	0	---	0.00	29.673 
01:35	71.6	71.6	71.6	83	66.2	0	0	---	0.00	29.673 
01:40	71.5	71.5	71.5	84	66.4	0	0	---	0.00	29.673 
01:45	71.3	71.3	71.3	84	66.2	0	0	---	0.00	29.675 
01:50	71.1	71.1	71.1	84	66.0	0	0	---	0.00	29.675 
01:55	70.9	70.9	70.9	84	65.8	0	0	---	0.00	29.675 
02:00	70.8	70.8	70.8	84	65.7	0	0	---	0.00	29.674 
02:05	70.8	70.8	70.8	85	66.1	0	0	---	0.00	29.674 
02:10	70.6	70.6	70.6	85	65.9	0	0	---	0.00	29.674 
02:15	70.4	70.4	70.4	85	65.7	0	0	---	0.00	29.674 
02:20	70.4	70.4	70.4	85	65.7	0	0	---	0.00	29.674 
02:25	70.3	70.3	70.3	86	65.9	0	1	292	0.00	29.674 
02:30	70.3	70.3	70.3	86	65.9	0	0	---	0.00	29.665 
02:35	70.1	70.1	70.1	86	65.7	0	1	292	0.00	29.665 
02:40	70.1	70.1	70.1	86	65.7	0	0	---	0.00	29.665 
02:45	70.1	70.1	70.1	86	65.7	0	1	292	0.00	29.670 
02:50	70.1	70.1	70.1	86	65.7	0	1	292	0.00	29.670 
02:55	70.3	70.3	70.3	85	65.6	0	1	292	0.00	29.670 
03:00	70.3	70.3	70.3	85	65.6	0	1	292	0.00	29.672 
03:05	70.4	70.4	70.4	85	65.7	0	1	292	0.00	29.672 
03:10	70.4	70.4	70.4	84	65.3	0	1	292	0.00	29.672 
03:15	70.4	70.4	70.4	84	65.3	0	1	292	0.00	29.664 
03:20	70.4	70.4	70.4	84	65.3	0	1	292	0.00	29.664 
03:25	70.4	70.4	70.4	84	65.3	0	3	292	0.00	29.664 
03:30	70.4	70.4	70.4	84	65.3	0	1	292	0.00	29.657 
03:35	70.4	70.4	70.4	84	65.3	0	1	292	0.00	29.657 
03:40	70.4	70.4	70.4	84	65.3	0	1	292	0.00	29.657 
03:45	70.4	70.4	70.4	84	65.3	0	1	292	0.00	29.660 
03:50	70.3	70.3	70.3	84	65.2	0	1	292	0.00	29.660 
03:55	70.3	70.3	70.3	84	65.2	0	1	292	0.00	29.660 
04:00	70.3	70.3	70.3	84	65.2	0	1	292	0.00	29.663 
04:05	70.3	70.3	70.3	84	65.2	0	1	292	0.00	29.663 
04:10	70.1	70.1	70.1	84	65.0	0	1	292	0.00	29.663 
04:15	70.1	70.1	70.1	84	65.0	0	0	---	0.00	29.658 
04:20	70.1	70.1	70.1	84	65.0	0	1	292	0.00	29.658 
04:25	69.9	69.9	69.9	84	64.8	0	1	292	0.00	29.658 
04:30	69.9	69.9	69.9	84	64.8	0	0	---	0.00	29.656 
04:35	69.9	69.9	69.9	85	65.2	0	1	292	0.00	29.656 
04:40	69.8	69.8	69.8	85	65.1	0	1	292	0.00	29.656 
04:45	69.8	69.8	69.8	85	65.1	0	1	292	0.00	29.653 
04:50	69.8	69.8	69.8	85	65.1	0	1	292	0.00	29.653 
04:55	69.6	69.6	69.6	86	65.2	0	1	315	0.00	29.653 
05:00	69.6	69.6	69.6	86	65.2	0	1	315	0.00	29.649 
05:05	69.6	69.6	69.6	86	65.2	0	1	315	0.00	29.649 
05:10	69.6	69.6	69.6	86	65.2	0	1	315	0.00	29.649 
05:15	69.6	69.6	69.6	87	65.6	0	1	315	0.00	29.643 
05:20	69.6	69.6	69.6	87	65.6	0	1	315	0.00	29.643 
05:25	69.8	69.8	69.8	87	65.7	0	1	315	0.00	29.643 
05:30	69.8	69.8	69.8	87	65.7	0	2	315	0.00	29.645 
05:35	69.9	69.9	69.9	87	65.8	0	2	315	0.00	29.645 
05:40	69.9	69.9	69.9	87	65.8	0	2	315	0.00	29.645 
05:45	69.9	69.9	69.9	87	65.8	0	2	315	0.00	29.648 
05:50	69.9	69.9	69.9	87	65.8	1	3	315	0.00	29.648 
05:55	69.9	69.9	69.9	87	65.8	0	3	315	0.00	29.648 
06:00	69.8	69.8	69.8	87	65.7	0	2	315	0.00	29.644 
06:05	69.8	69.8	69.8	88	66.1	1	3	315	0.00	29.644 
06:10	69.8	69.8	69.8	88	66.1	0	3	315	0.00	29.644 
06:15	69.8	69.8	69.8	88	66.1	0	2	315	0.00	29.659 
06:20	69.8	69.8	69.8	88	66.1	0	3	315	0.00	29.659 
06:25	69.9	69.9	69.9	88	66.2	1	3	315	0.00	29.659 
06:30	69.9	69.9	69.9	88	66.2	0	2	315	0.00	29.662 
06:35	69.9	69.9	69.9	89	66.5	0	4	315	0.00	29.662 
06:40	69.9	69.9	69.9	89	66.5	0	3	292	0.00	29.662 
06:45	70.1	70.1	70.1	89	66.7	1	3	292	0.00	29.663 
06:50	70.3	70.3	70.3	89	66.9	1	4	292	0.00	29.663 
06:55	70.3	70.3	70.3	89	66.9	1	4	292	0.00	29.663 
07:00	70.4	70.4	70.4	89	67.0	1	4	292	0.00	29.665 
07:05	70.4	70.4	70.4	89	67.0	1	3	292	0.00	29.665 
07:10	70.6	70.6	70.6	89	67.2	1	3	292	0.00	29.665 
07:15	70.6	70.6	70.6	89	67.2	1	3	292	0.00	29.668 
07:20	70.8	70.8	70.8	89	67.4	2	4	292	0.00	29.668 
07:25	70.8	70.8	70.8	89	67.4	2	4	292	0.00	29.668 
07:30	70.9	70.9	70.9	88	67.2	2	4	315	0.00	29.666 
07:35	71.1	71.1	71.1	88	67.4	1	4	315	0.00	29.666 
07:40	71.3	71.3	71.3	87	67.2	3	6	315	0.00	29.666 
07:45	71.5	71.5	71.5	87	67.4	3	5	270	0.00	29.666 
07:50	71.5	71.5	71.5	86	67.1	2	5	292	0.00	29.666 
07:55	71.8	71.8	71.8	85	67.0	2	4	292	0.00	29.666 
08:00	71.8	71.8	71.8	85	67.0	1	4	292	0.00	29.666 
08:05	72.0	72.0	72.0	84	66.9	2	4	292	0.00	29.666 
08:10	72.3	72.3	72.3	84	67.2	1	3	292	0.00	29.666 
08:15	72.3	72.3	72.3	82	66.5	2	4	315	0.00	29.663 
08:20	72.5	72.5	72.5	81	66.3	2	5	292	0.00	29.663 
08:25	72.7	72.7	72.7	81	66.5	2	5	292	0.00	29.663 
08:30	73.0	73.0	73.0	80	66.5	1	3	270	0.00	29.662 
08:35	73.0	73.0	73.0	79	66.1	2	4	292	0.00	29.662 
08:40	73.3	73.3	73.3	78	66.0	2	5	292	0.00	29.662 
08:45	73.3	73.3	73.3	77	65.6	2	4	292	0.00	29.666 
08:50	73.5	73.5	73.5	77	65.8	3	5	292	0.00	29.666 
08:55	73.3	73.3	73.3	76	65.3	3	6	270	0.00	29.666 
09:00	73.3	73.3	73.3	76	65.3	2	5	292	0.00	29.671 
09:05	73.7	73.7	73.7	74	64.9	3	5	315	0.00	29.671 
09:10	73.9	73.9	73.9	72	64.3	2	6	292	0.00	29.671 
09:15	73.9	73.9	73.9	71	63.9	3	5	315	0.00	29.676 
09:20	73.9	73.9	73.9	70	63.5	2	5	292	0.00	29.676 
09:25	74.0	74.0	74.0	70	63.6	2	5	292	0.00	29.676 
09:30	74.2	74.2	74.2	69	63.4	3	7	270	0.00	29.679 
09:35	74.2	74.2	74.2	67	62.5	4	6	292	0.00	29.679 
09:40	74.4	74.4	74.4	67	62.7	3	6	315	0.00	29.679 
09:45	74.6	74.6	74.6	67	62.9	3	5	292	0.00	29.678 
09:50	74.9	74.9	74.9	68	63.6	2	5	292	0.00	29.678 
09:55	75.1	75.1	76.9	68	63.8	2	7	338	0.00	29.678 
10:00	75.1	75.1	77.1	66	62.9	3	7	270	0.00	29.681 
10:05	75.1	75.1	77.1	66	62.9	4	6	270	0.00	29.681 
10:10	75.1	75.1	77.1	66	62.9	4	6	292	0.00	29.681 
10:15	75.1	75.1	77.1	65	62.5	4	6	292	0.00	29.685 
10:20	74.9	74.9	74.9	65	62.3	3	6	270	0.00	29.685 
10:25	75.3	75.3	77.3	65	62.7	3	9	270	0.00	29.685 
10:30	75.3	75.3	77.4	63	61.8	4	10	292	0.00	29.688 
10:35	75.6	75.6	77.6	63	62.1	4	9	292	0.00	29.688 
10:40	75.4	75.4	77.4	64	62.4	4	10	292	0.00	29.688 
10:45	75.1	75.1	77.3	63	61.6	3	7	270	0.00	29.688 
10:50	75.1	75.1	77.3	63	61.6	3	7	315	0.00	29.688 
10:55	74.9	74.9	74.9	63	61.4	4	7	292	0.00	29.688 
11:00	75.1	75.1	77.3	63	61.6	4	7	292	0.00	29.690 
11:05	75.1	75.1	77.3	62	61.2	4	9	292	0.00	29.690 
11:10	75.1	75.1	77.3	63	61.6	3	6	292	0.00	29.690 
11:15	75.4	75.4	77.5	63	61.9	3	9	292	0.00	29.687 
11:20	75.6	75.6	77.7	62	61.6	4	7	270	0.00	29.687 
11:25	76.1	76.1	78.0	62	62.1	4	9	315	0.00	29.687 
11:30	76.3	76.3	78.2	59	60.9	3	9	270	0.00	29.690 
11:35	76.0	76.0	78.0	60	61.1	3	9	292	0.00	29.690 
11:40	75.8	75.8	77.9	60	60.9	5	9	270	0.00	29.690 
11:45	75.8	75.8	77.9	60	60.9	6	11	270	0.00	29.691 
11:50	75.6	75.6	77.7	60	60.7	4	10	270	0.00	29.691 
11:55	75.4	75.4	77.6	61	61.0	5	11	292	0.00	29.691 
12:00	75.6	75.6	77.7	62	61.6	3	7	270	0.00	29.693 
12:05	76.0	76.0	78.0	61	61.6	5	9	292	0.00	29.693 
12:10	75.6	75.6	77.7	61	61.2	5	10	292	0.00	29.693 
12:15	75.8	75.8	77.8	62	61.8	4	7	292	0.00	29.692 
12:20	76.1	76.1	78.1	61	61.7	4	11	292	0.00	29.692 
12:25	76.0	76.0	78.0	60	61.1	4	12	270	0.00	29.692 
12:30	75.8	75.8	77.9	60	60.9	5	12	292	0.00	29.692 
12:35	75.6	75.6	77.7	60	60.7	5	9	270	0.00	29.692 
12:40	75.8	75.8	77.8	61	61.4	4	10	292	0.00	29.692 
12:45	75.8	75.8	77.9	60	60.9	5	12	292	0.00	29.696 
12:50	75.6	75.6	77.7	60	60.7	5	11	270	0.00	29.696 
12:55	75.6	75.6	77.6	63	62.1	3	10	292	0.00	29.696 
13:00	75.3	75.3	77.5	62	61.4	5	9	270	0.00	29.696 
13:05	74.9	74.9	74.9	62	61.0	5	10	292	0.00	29.696 
13:10	74.4	74.4	74.4	64	61.4	5	13	292	0.00	29.696 
13:15	74.7	74.7	74.7	65	62.1	3	7	292	0.00	29.697 
13:20	75.4	75.4	77.4	64	62.4	3	11	292	0.00	29.697 
13:25	75.4	75.4	77.5	63	61.9	3	7	292	0.00	29.697 
13:30	75.1	75.1	77.2	64	62.1	3	7	292	0.00	29.699 
13:35	74.9	74.9	74.9	64	61.9	5	12	292	0.00	29.699 
13:40	74.7	74.7	74.7	64	61.7	4	10	292	0.00	29.699 
13:45	74.7	74.7	74.7	65	62.1	4	7	292	0.00	29.697 
13:50	74.7	74.7	74.7	65	62.1	5	8	292	0.00	29.697 
13:55	74.9	74.9	74.9	64	61.9	6	13	292	0.00	29.697 
14:00	74.7	74.7	74.7	64	61.7	5	14	292	0.00	29.695 
14:05	75.1	75.1	77.1	65	62.5	4	7	292	0.00	29.695 
14:10	75.3	75.3	77.3	65	62.7	3	7	292	0.00	29.695 
14:15	75.4	75.4	77.5	63	61.9	4	11	292	0.00	29.694 
14:20	75.4	75.4	77.5	63	61.9	5	10	270	0.00	29.694 
14:25	75.3	75.3	77.5	62	61.4	6	14	270	0.00	29.694 
14:30	74.6	74.6	74.6	64	61.6	5	10	292	0.00	29.698 
14:35	74.0	74.0	74.0	66	61.9	4	7	270	0.00	29.698 
14:40	73.7	73.7	73.7	66	61.6	5	11	270	0.00	29.698 
14:45	73.7	73.7	73.7	66	61.6	3	7	270	0.00	29.699 
14:50	73.5	73.5	73.5	66	61.4	5	10	315	0.00	29.699 

CoCoRaHS
IN-AL-39
A2 Web Hosting
Creative Commons License
GoDaddy
search engine by freefind advanced

loaded 2018-11-17 23:11:33 • last modified 2010-11-18 10:43:29
Privacy PolicyDisclaimer
• wx.awcolley.com is powered by PmWiki v.2002016 •
• all content (unless otherwise noted) © 2018 A W Colley